Starrville, Texas
Current Conditions -  °F | °C
As of 2:53 PM on Tuesday 25 Nov 2014 (Local Time) from KTYR Reporting Station
Clear Clear  
Wind Chill: 64°   Ceiling: Unl
Heat Index: 64°   Visibility: 10mi
Dew Point: 24°   Wind: 10mph
Humidity: 22%   Direction: 280°W
Pressure: 30.17"   Gusts: 20mph
Location:  32.4644°N, 95.1125°W
Report Text: KTYR 252053Z 28009G17KT 10SM CLR 18/M04 A3017 RMK AO2 SLP215 T01781044 56029
Loading
Personal Weather Stations






























Interactive Weather Map New forecast layout! Learn more

10-Day Weather Forecast

Advertisements
Track Severe Weather on mobile